sensor_id;sensor_type;location;lat;lon;timestamp;P1;durP1;ratioP1;P2;durP2;ratioP2
70228;SDS011;57617;51.988;5.854;2022-12-20T00:01:25;7.32;;;3.30;;
70228;SDS011;57617;51.988;5.854;2022-12-20T00:03:53;8.60;;;3.65;;
70228;SDS011;57617;51.988;5.854;2022-12-20T00:06:20;9.05;;;3.40;;
70228;SDS011;57617;51.988;5.854;2022-12-20T00:08:46;6.38;;;3.45;;
70228;SDS011;57617;51.988;5.854;2022-12-20T00:11:16;6.63;;;3.40;;
70228;SDS011;57617;51.988;5.854;2022-12-20T00:13:41;8.57;;;3.55;;
70228;SDS011;57617;51.988;5.854;2022-12-20T00:16:14;6.40;;;3.60;;
70228;SDS011;57617;51.988;5.854;2022-12-20T00:18:42;5.72;;;3.30;;
70228;SDS011;57617;51.988;5.854;2022-12-20T00:21:10;7.15;;;3.63;;
70228;SDS011;57617;51.988;5.854;2022-12-20T00:23:36;6.43;;;3.30;;
70228;SDS011;57617;51.988;5.854;2022-12-20T00:26:03;7.22;;;3.70;;
70228;SDS011;57617;51.988;5.854;2022-12-20T00:28:31;5.68;;;3.40;;
70228;SDS011;57617;51.988;5.854;2022-12-20T00:30:57;6.63;;;3.25;;
70228;SDS011;57617;51.988;5.854;2022-12-20T00:33:23;8.57;;;3.30;;
70228;SDS011;57617;51.988;5.854;2022-12-20T00:35:48;8.82;;;3.05;;
70228;SDS011;57617;51.988;5.854;2022-12-20T00:38:13;6.53;;;3.05;;
70228;SDS011;57617;51.988;5.854;2022-12-20T00:40:39;6.63;;;2.97;;
70228;SDS011;57617;51.988;5.854;2022-12-20T00:43:04;5.97;;;2.83;;
70228;SDS011;57617;51.988;5.854;2022-12-20T00:45:30;5.15;;;2.85;;
70228;SDS011;57617;51.988;5.854;2022-12-20T00:47:55;5.15;;;2.60;;
70228;SDS011;57617;51.988;5.854;2022-12-20T00:50:20;6.25;;;2.85;;
70228;SDS011;57617;51.988;5.854;2022-12-20T00:52:45;3.92;;;2.50;;
70228;SDS011;57617;51.988;5.854;2022-12-20T00:55:11;5.88;;;2.85;;
70228;SDS011;57617;51.988;5.854;2022-12-20T00:57:36;6.63;;;3.03;;
70228;SDS011;57617;51.988;5.854;2022-12-20T01:00:01;5.68;;;2.70;;
70228;SDS011;57617;51.988;5.854;2022-12-20T01:02:27;3.90;;;2.63;;
70228;SDS011;57617;51.988;5.854;2022-12-20T01:04:53;5.07;;;2.55;;
70228;SDS011;57617;51.988;5.854;2022-12-20T01:07:18;5.80;;;2.60;;
70228;SDS011;57617;51.988;5.854;2022-12-20T01:09:44;4.72;;;2.75;;
70228;SDS011;57617;51.988;5.854;2022-12-20T01:12:09;6.78;;;2.70;;
70228;SDS011;57617;51.988;5.854;2022-12-20T01:14:35;4.45;;;2.50;;
70228;SDS011;57617;51.988;5.854;2022-12-20T01:17:03;4.72;;;2.53;;
70228;SDS011;57617;51.988;5.854;2022-12-20T01:19:28;6.93;;;2.80;;
70228;SDS011;57617;51.988;5.854;2022-12-20T01:21:54;4.95;;;2.67;;
70228;SDS011;57617;51.988;5.854;2022-12-20T01:24:19;4.03;;;2.65;;
70228;SDS011;57617;51.988;5.854;2022-12-20T01:26:45;4.65;;;2.80;;
70228;SDS011;57617;51.988;5.854;2022-12-20T01:29:11;7.47;;;2.63;;
70228;SDS011;57617;51.988;5.854;2022-12-20T01:31:36;6.72;;;3.00;;
70228;SDS011;57617;51.988;5.854;2022-12-20T01:34:02;5.60;;;2.90;;
70228;SDS011;57617;51.988;5.854;2022-12-20T01:36:28;4.35;;;2.60;;
70228;SDS011;57617;51.988;5.854;2022-12-20T01:39:03;4.28;;;2.60;;
70228;SDS011;57617;51.988;5.854;2022-12-20T01:41:33;7.50;;;2.65;;
70228;SDS011;57617;51.988;5.854;2022-12-20T01:46:46;5.40;;;2.78;;
70228;SDS011;57617;51.988;5.854;2022-12-20T01:54:25;4.68;;;2.72;;
70228;SDS011;57617;51.988;5.854;2022-12-20T01:56:58;6.40;;;3.10;;
70228;SDS011;57617;51.988;5.854;2022-12-20T01:59:27;5.43;;;3.22;;
70228;SDS011;57617;51.988;5.854;2022-12-20T02:01:55;5.47;;;3.22;;
70228;SDS011;57617;51.988;5.854;2022-12-20T02:04:22;7.38;;;3.28;;
70228;SDS011;57617;51.988;5.854;2022-12-20T02:06:48;7.35;;;3.40;;
70228;SDS011;57617;51.988;5.854;2022-12-20T02:09:13;6.93;;;3.38;;
70228;SDS011;57617;51.988;5.854;2022-12-20T02:11:53;7.18;;;3.60;;
70228;SDS011;57617;51.988;5.854;2022-12-20T02:14:44;7.78;;;3.70;;
70228;SDS011;57617;51.988;5.854;2022-12-20T02:17:24;8.35;;;3.63;;
70228;SDS011;57617;51.988;5.854;2022-12-20T02:30:40;10.35;;;4.05;;
70228;SDS011;57617;51.988;5.854;2022-12-20T02:33:10;8.60;;;4.03;;
70228;SDS011;57617;51.988;5.854;2022-12-20T02:35:39;8.52;;;4.20;;
70228;SDS011;57617;51.988;5.854;2022-12-20T02:41:08;8.02;;;4.35;;
70228;SDS011;57617;51.988;5.854;2022-12-20T02:43:40;9.20;;;4.85;;
70228;SDS011;57617;51.988;5.854;2022-12-20T02:46:26;9.10;;;4.72;;
70228;SDS011;57617;51.988;5.854;2022-12-20T02:48:54;8.52;;;4.80;;
70228;SDS011;57617;51.988;5.854;2022-12-20T02:51:22;9.40;;;4.78;;
70228;SDS011;57617;51.988;5.854;2022-12-20T02:53:50;10.05;;;4.82;;
70228;SDS011;57617;51.988;5.854;2022-12-20T02:56:18;8.68;;;4.35;;
70228;SDS011;57617;51.988;5.854;2022-12-20T02:58:52;12.05;;;5.22;;
70228;SDS011;57617;51.988;5.854;2022-12-20T03:01:29;9.70;;;5.22;;
70228;SDS011;57617;51.988;5.854;2022-12-20T03:03:57;10.27;;;5.18;;
70228;SDS011;57617;51.988;5.854;2022-12-20T03:06:24;9.50;;;5.10;;
70228;SDS011;57617;51.988;5.854;2022-12-20T03:08:49;9.02;;;4.70;;
70228;SDS011;57617;51.988;5.854;2022-12-20T03:11:15;8.98;;;4.78;;
70228;SDS011;57617;51.988;5.854;2022-12-20T03:13:40;7.57;;;4.53;;
70228;SDS011;57617;51.988;5.854;2022-12-20T03:16:05;11.50;;;4.65;;
70228;SDS011;57617;51.988;5.854;2022-12-20T03:18:31;9.57;;;4.82;;
70228;SDS011;57617;51.988;5.854;2022-12-20T03:20:57;11.23;;;5.07;;
70228;SDS011;57617;51.988;5.854;2022-12-20T03:23:22;9.43;;;4.25;;
70228;SDS011;57617;51.988;5.854;2022-12-20T03:25:48;12.55;;;4.57;;
70228;SDS011;57617;51.988;5.854;2022-12-20T03:28:13;10.40;;;4.65;;
70228;SDS011;57617;51.988;5.854;2022-12-20T03:30:38;10.88;;;4.50;;
70228;SDS011;57617;51.988;5.854;2022-12-20T03:33:04;7.68;;;4.40;;
70228;SDS011;57617;51.988;5.854;2022-12-20T03:35:29;7.75;;;4.05;;
70228;SDS011;57617;51.988;5.854;2022-12-20T03:37:54;7.32;;;4.45;;
70228;SDS011;57617;51.988;5.854;2022-12-20T03:40:20;6.97;;;4.00;;
70228;SDS011;57617;51.988;5.854;2022-12-20T03:42:46;7.68;;;4.30;;
70228;SDS011;57617;51.988;5.854;2022-12-20T03:45:11;9.40;;;4.07;;
70228;SDS011;57617;51.988;5.854;2022-12-20T03:47:37;9.27;;;4.47;;
70228;SDS011;57617;51.988;5.854;2022-12-20T03:50:02;9.02;;;4.20;;
70228;SDS011;57617;51.988;5.854;2022-12-20T03:52:29;11.27;;;4.65;;
70228;SDS011;57617;51.988;5.854;2022-12-20T03:54:54;6.90;;;4.25;;
70228;SDS011;57617;51.988;5.854;2022-12-20T03:57:19;7.47;;;3.70;;
70228;SDS011;57617;51.988;5.854;2022-12-20T03:59:45;7.28;;;3.88;;
70228;SDS011;57617;51.988;5.854;2022-12-20T04:02:10;7.53;;;4.20;;
70228;SDS011;57617;51.988;5.854;2022-12-20T04:04:35;6.95;;;3.83;;
70228;SDS011;57617;51.988;5.854;2022-12-20T04:07:00;6.97;;;3.80;;
70228;SDS011;57617;51.988;5.854;2022-12-20T04:09:26;6.00;;;3.92;;
70228;SDS011;57617;51.988;5.854;2022-12-20T04:11:51;7.80;;;3.70;;
70228;SDS011;57617;51.988;5.854;2022-12-20T04:14:16;10.20;;;4.10;;
70228;SDS011;57617;51.988;5.854;2022-12-20T04:16:42;6.13;;;3.83;;
70228;SDS011;57617;51.988;5.854;2022-12-20T04:19:07;6.72;;;3.65;;
70228;SDS011;57617;51.988;5.854;2022-12-20T04:21:33;7.20;;;3.67;;
70228;SDS011;57617;51.988;5.854;2022-12-20T04:23:59;5.53;;;3.47;;
70228;SDS011;57617;51.988;5.854;2022-12-20T04:26:25;8.68;;;3.60;;
70228;SDS011;57617;51.988;5.854;2022-12-20T04:28:51;7.22;;;3.67;;
70228;SDS011;57617;51.988;5.854;2022-12-20T04:31:16;7.00;;;4.27;;
70228;SDS011;57617;51.988;5.854;2022-12-20T04:33:41;7.00;;;4.22;;
70228;SDS011;57617;51.988;5.854;2022-12-20T04:36:07;6.38;;;3.53;;
70228;SDS011;57617;51.988;5.854;2022-12-20T04:38:33;7.00;;;3.75;;
70228;SDS011;57617;51.988;5.854;2022-12-20T04:40:58;7.53;;;3.90;;
70228;SDS011;57617;51.988;5.854;2022-12-20T04:43:24;7.30;;;3.80;;
70228;SDS011;57617;51.988;5.854;2022-12-20T04:45:51;6.88;;;3.55;;
70228;SDS011;57617;51.988;5.854;2022-12-20T04:48:18;5.22;;;3.47;;
70228;SDS011;57617;51.988;5.854;2022-12-20T04:50:47;4.95;;;3.13;;
70228;SDS011;57617;51.988;5.854;2022-12-20T04:53:13;7.30;;;3.45;;
70228;SDS011;57617;51.988;5.854;2022-12-20T04:55:58;6.78;;;3.58;;
70228;SDS011;57617;51.988;5.854;2022-12-20T04:58:23;7.95;;;3.30;;
70228;SDS011;57617;51.988;5.854;2022-12-20T05:00:49;6.10;;;3.35;;
70228;SDS011;57617;51.988;5.854;2022-12-20T05:03:16;5.35;;;3.60;;
70228;SDS011;57617;51.988;5.854;2022-12-20T05:05:41;5.93;;;3.35;;
70228;SDS011;57617;51.988;5.854;2022-12-20T05:08:07;5.75;;;3.30;;
70228;SDS011;57617;51.988;5.854;2022-12-20T05:10:32;5.75;;;3.13;;
70228;SDS011;57617;51.988;5.854;2022-12-20T05:12:57;7.03;;;3.45;;
70228;SDS011;57617;51.988;5.854;2022-12-20T05:15:23;10.27;;;3.75;;
70228;SDS011;57617;51.988;5.854;2022-12-20T05:17:48;9.90;;;3.95;;
70228;SDS011;57617;51.988;5.854;2022-12-20T05:20:13;7.57;;;3.55;;
70228;SDS011;57617;51.988;5.854;2022-12-20T05:22:38;8.13;;;4.00;;
70228;SDS011;57617;51.988;5.854;2022-12-20T05:25:22;9.40;;;3.55;;
70228;SDS011;57617;51.988;5.854;2022-12-20T05:28:06;9.82;;;4.07;;
70228;SDS011;57617;51.988;5.854;2022-12-20T05:30:32;6.85;;;3.63;;
70228;SDS011;57617;51.988;5.854;2022-12-20T05:32:57;6.30;;;3.75;;
70228;SDS011;57617;51.988;5.854;2022-12-20T05:35:23;9.25;;;3.80;;
70228;SDS011;57617;51.988;5.854;2022-12-20T05:37:48;8.77;;;3.78;;
70228;SDS011;57617;51.988;5.854;2022-12-20T05:40:13;10.48;;;4.63;;
70228;SDS011;57617;51.988;5.854;2022-12-20T05:42:40;8.65;;;4.55;;
70228;SDS011;57617;51.988;5.854;2022-12-20T05:45:05;9.02;;;4.38;;
70228;SDS011;57617;51.988;5.854;2022-12-20T05:47:32;10.63;;;4.28;;
70228;SDS011;57617;51.988;5.854;2022-12-20T05:50:01;10.73;;;4.30;;
70228;SDS011;57617;51.988;5.854;2022-12-20T05:52:27;11.75;;;4.13;;
70228;SDS011;57617;51.988;5.854;2022-12-20T05:54:53;7.60;;;4.35;;
70228;SDS011;57617;51.988;5.854;2022-12-20T05:57:18;5.93;;;3.63;;
70228;SDS011;57617;51.988;5.854;2022-12-20T05:59:44;9.40;;;4.60;;
70228;SDS011;57617;51.988;5.854;2022-12-20T06:02:09;10.50;;;4.28;;
70228;SDS011;57617;51.988;5.854;2022-12-20T06:04:36;8.85;;;4.72;;
70228;SDS011;57617;51.988;5.854;2022-12-20T06:07:02;8.88;;;4.80;;
70228;SDS011;57617;51.988;5.854;2022-12-20T06:09:29;7.93;;;4.30;;
70228;SDS011;57617;51.988;5.854;2022-12-20T06:11:54;9.52;;;4.38;;
70228;SDS011;57617;51.988;5.854;2022-12-20T06:14:19;10.68;;;4.43;;
70228;SDS011;57617;51.988;5.854;2022-12-20T06:16:45;7.53;;;4.20;;
70228;SDS011;57617;51.988;5.854;2022-12-20T06:19:11;6.68;;;3.92;;
70228;SDS011;57617;51.988;5.854;2022-12-20T06:21:36;8.30;;;3.97;;
70228;SDS011;57617;51.988;5.854;2022-12-20T06:24:02;9.30;;;4.60;;
70228;SDS011;57617;51.988;5.854;2022-12-20T06:26:27;8.15;;;4.00;;
70228;SDS011;57617;51.988;5.854;2022-12-20T06:28:59;10.63;;;4.03;;
70228;SDS011;57617;51.988;5.854;2022-12-20T06:31:26;8.52;;;4.00;;
70228;SDS011;57617;51.988;5.854;2022-12-20T06:33:51;10.40;;;3.83;;
70228;SDS011;57617;51.988;5.854;2022-12-20T06:36:16;9.65;;;3.92;;
70228;SDS011;57617;51.988;5.854;2022-12-20T06:38:42;7.40;;;3.30;;
70228;SDS011;57617;51.988;5.854;2022-12-20T06:41:08;7.82;;;3.20;;
70228;SDS011;57617;51.988;5.854;2022-12-20T06:43:33;6.25;;;3.45;;
70228;SDS011;57617;51.988;5.854;2022-12-20T06:45:58;8.70;;;3.55;;
70228;SDS011;57617;51.988;5.854;2022-12-20T06:48:24;6.35;;;3.25;;
70228;SDS011;57617;51.988;5.854;2022-12-20T06:50:49;7.28;;;3.63;;
70228;SDS011;57617;51.988;5.854;2022-12-20T06:53:14;5.85;;;3.08;;
70228;SDS011;57617;51.988;5.854;2022-12-20T06:55:40;8.43;;;2.90;;
70228;SDS011;57617;51.988;5.854;2022-12-20T06:58:05;6.47;;;3.08;;
70228;SDS011;57617;51.988;5.854;2022-12-20T07:00:31;6.28;;;2.80;;
70228;SDS011;57617;51.988;5.854;2022-12-20T07:02:56;6.18;;;3.17;;
70228;SDS011;57617;51.988;5.854;2022-12-20T07:05:22;6.43;;;2.90;;
70228;SDS011;57617;51.988;5.854;2022-12-20T07:07:47;5.63;;;2.88;;
70228;SDS011;57617;51.988;5.854;2022-12-20T07:10:12;7.05;;;2.88;;
70228;SDS011;57617;51.988;5.854;2022-12-20T07:12:38;7.28;;;3.17;;
70228;SDS011;57617;51.988;5.854;2022-12-20T07:15:03;6.35;;;2.60;;
70228;SDS011;57617;51.988;5.854;2022-12-20T07:17:29;5.80;;;2.72;;
70228;SDS011;57617;51.988;5.854;2022-12-20T07:19:55;5.63;;;3.08;;
70228;SDS011;57617;51.988;5.854;2022-12-20T07:22:20;6.82;;;3.10;;
70228;SDS011;57617;51.988;5.854;2022-12-20T07:24:46;5.18;;;2.70;;
70228;SDS011;57617;51.988;5.854;2022-12-20T07:27:11;5.70;;;3.10;;
70228;SDS011;57617;51.988;5.854;2022-12-20T07:29:37;7.65;;;3.00;;
70228;SDS011;57617;51.988;5.854;2022-12-20T07:32:05;7.93;;;3.00;;
70228;SDS011;57617;51.988;5.854;2022-12-20T07:34:31;4.68;;;2.85;;
70228;SDS011;57617;51.988;5.854;2022-12-20T07:36:56;7.70;;;3.30;;
70228;SDS011;57617;51.988;5.854;2022-12-20T07:39:22;8.07;;;3.83;;
70228;SDS011;57617;51.988;5.854;2022-12-20T07:41:48;5.97;;;3.80;;
70228;SDS011;57617;51.988;5.854;2022-12-20T07:44:13;8.18;;;4.03;;
70228;SDS011;57617;51.988;5.854;2022-12-20T07:46:38;8.23;;;4.53;;
70228;SDS011;57617;51.988;5.854;2022-12-20T07:49:04;10.88;;;5.78;;
70228;SDS011;57617;51.988;5.854;2022-12-20T07:51:30;7.30;;;3.10;;
70228;SDS011;57617;51.988;5.854;2022-12-20T07:54:01;5.88;;;3.10;;
70228;SDS011;57617;51.988;5.854;2022-12-20T07:56:40;5.03;;;3.08;;
70228;SDS011;57617;51.988;5.854;2022-12-20T07:59:10;7.53;;;3.50;;
70228;SDS011;57617;51.988;5.854;2022-12-20T08:01:38;6.65;;;3.20;;
70228;SDS011;57617;51.988;5.854;2022-12-20T08:04:12;7.63;;;3.53;;
70228;SDS011;57617;51.988;5.854;2022-12-20T08:06:39;7.95;;;3.45;;
70228;SDS011;57617;51.988;5.854;2022-12-20T08:09:06;6.95;;;3.40;;
70228;SDS011;57617;51.988;5.854;2022-12-20T08:11:34;7.00;;;3.50;;
70228;SDS011;57617;51.988;5.854;2022-12-20T08:14:01;7.65;;;3.28;;
70228;SDS011;57617;51.988;5.854;2022-12-20T08:16:28;7.72;;;3.38;;
70228;SDS011;57617;51.988;5.854;2022-12-20T08:18:55;7.07;;;3.20;;
70228;SDS011;57617;51.988;5.854;2022-12-20T08:21:20;6.85;;;3.15;;
70228;SDS011;57617;51.988;5.854;2022-12-20T08:23:45;5.65;;;3.05;;
70228;SDS011;57617;51.988;5.854;2022-12-20T08:26:11;5.55;;;3.10;;
70228;SDS011;57617;51.988;5.854;2022-12-20T08:28:36;7.22;;;3.47;;
70228;SDS011;57617;51.988;5.854;2022-12-20T08:31:02;5.80;;;3.05;;
70228;SDS011;57617;51.988;5.854;2022-12-20T08:33:29;6.25;;;2.97;;
70228;SDS011;57617;51.988;5.854;2022-12-20T08:35:58;5.30;;;3.38;;
70228;SDS011;57617;51.988;5.854;2022-12-20T08:38:26;7.88;;;3.03;;
70228;SDS011;57617;51.988;5.854;2022-12-20T08:40:52;8.38;;;2.92;;
70228;SDS011;57617;51.988;5.854;2022-12-20T08:43:18;5.85;;;3.47;;
70228;SDS011;57617;51.988;5.854;2022-12-20T08:45:43;7.18;;;3.17;;
70228;SDS011;57617;51.988;5.854;2022-12-20T08:48:08;9.40;;;3.15;;
70228;SDS011;57617;51.988;5.854;2022-12-20T08:50:34;8.55;;;3.28;;
70228;SDS011;57617;51.988;5.854;2022-12-20T08:53:00;6.50;;;3.05;;
70228;SDS011;57617;51.988;5.854;2022-12-20T08:55:25;5.85;;;3.13;;
70228;SDS011;57617;51.988;5.854;2022-12-20T08:57:50;5.18;;;2.47;;
70228;SDS011;57617;51.988;5.854;2022-12-20T09:00:16;5.47;;;2.90;;
70228;SDS011;57617;51.988;5.854;2022-12-20T09:02:41;5.68;;;2.88;;
70228;SDS011;57617;51.988;5.854;2022-12-20T09:05:07;5.90;;;2.80;;
70228;SDS011;57617;51.988;5.854;2022-12-20T09:07:32;5.03;;;2.92;;
70228;SDS011;57617;51.988;5.854;2022-12-20T09:09:58;7.18;;;2.80;;
70228;SDS011;57617;51.988;5.854;2022-12-20T09:12:23;6.10;;;2.65;;
70228;SDS011;57617;51.988;5.854;2022-12-20T09:14:48;9.07;;;2.97;;
70228;SDS011;57617;51.988;5.854;2022-12-20T09:17:14;4.88;;;3.10;;
70228;SDS011;57617;51.988;5.854;2022-12-20T09:19:39;7.22;;;3.10;;
70228;SDS011;57617;51.988;5.854;2022-12-20T09:22:04;6.68;;;3.40;;
70228;SDS011;57617;51.988;5.854;2022-12-20T09:24:30;8.20;;;3.28;;
70228;SDS011;57617;51.988;5.854;2022-12-20T09:26:55;10.00;;;3.55;;
70228;SDS011;57617;51.988;5.854;2022-12-20T09:29:20;8.98;;;3.45;;
70228;SDS011;57617;51.988;5.854;2022-12-20T09:31:46;8.93;;;3.42;;
70228;SDS011;57617;51.988;5.854;2022-12-20T09:34:13;10.32;;;3.50;;
70228;SDS011;57617;51.988;5.854;2022-12-20T09:36:39;7.53;;;3.40;;
70228;SDS011;57617;51.988;5.854;2022-12-20T09:39:04;8.40;;;3.45;;
70228;SDS011;57617;51.988;5.854;2022-12-20T09:41:34;8.00;;;3.40;;
70228;SDS011;57617;51.988;5.854;2022-12-20T09:44:24;8.75;;;3.42;;
70228;SDS011;57617;51.988;5.854;2022-12-20T09:47:33;8.30;;;3.63;;
70228;SDS011;57617;51.988;5.854;2022-12-20T09:49:43;9.18;;;3.88;;
70228;SDS011;57617;51.988;5.854;2022-12-20T09:57:51;9.35;;;4.10;;
70228;SDS011;57617;51.988;5.854;2022-12-20T10:00:27;9.50;;;3.80;;
70228;SDS011;57617;51.988;5.854;2022-12-20T10:02:54;7.55;;;3.70;;
70228;SDS011;57617;51.988;5.854;2022-12-20T10:05:33;7.10;;;3.40;;
70228;SDS011;57617;51.988;5.854;2022-12-20T10:10:58;8.75;;;3.60;;
70228;SDS011;57617;51.988;5.854;2022-12-20T10:16:23;8.23;;;3.40;;
70228;SDS011;57617;51.988;5.854;2022-12-20T10:25:14;9.80;;;4.25;;
70228;SDS011;57617;51.988;5.854;2022-12-20T10:27:44;8.32;;;3.90;;
70228;SDS011;57617;51.988;5.854;2022-12-20T10:30:13;11.23;;;4.10;;
70228;SDS011;57617;51.988;5.854;2022-12-20T10:32:43;9.50;;;4.03;;
70228;SDS011;57617;51.988;5.854;2022-12-20T10:35:32;7.28;;;4.13;;
70228;SDS011;57617;51.988;5.854;2022-12-20T10:38:03;7.82;;;4.47;;
70228;SDS011;57617;51.988;5.854;2022-12-20T10:40:38;8.43;;;3.85;;
70228;SDS011;57617;51.988;5.854;2022-12-20T10:43:05;8.20;;;3.90;;
70228;SDS011;57617;51.988;5.854;2022-12-20T10:45:38;9.27;;;4.22;;
70228;SDS011;57617;51.988;5.854;2022-12-20T10:48:21;10.25;;;3.90;;
70228;SDS011;57617;51.988;5.854;2022-12-20T10:50:54;8.43;;;4.28;;
70228;SDS011;57617;51.988;5.854;2022-12-20T10:53:25;8.40;;;4.32;;
70228;SDS011;57617;51.988;5.854;2022-12-20T10:55:52;10.48;;;4.82;;
70228;SDS011;57617;51.988;5.854;2022-12-20T11:01:33;10.15;;;4.75;;
70228;SDS011;57617;51.988;5.854;2022-12-20T11:06:49;11.57;;;4.75;;
70228;SDS011;57617;51.988;5.854;2022-12-20T11:14:29;10.65;;;4.68;;
70228;SDS011;57617;51.988;5.854;2022-12-20T11:16:55;12.73;;;4.95;;
70228;SDS011;57617;51.988;5.854;2022-12-20T11:24:44;20.33;;;4.78;;
70228;SDS011;57617;51.988;5.854;2022-12-20T11:30:01;12.85;;;4.88;;
70228;SDS011;57617;51.988;5.854;2022-12-20T11:32:31;11.77;;;4.72;;
70228;SDS011;57617;51.988;5.854;2022-12-20T11:37:40;10.90;;;5.35;;
70228;SDS011;57617;51.988;5.854;2022-12-20T11:45:26;13.13;;;5.60;;
70228;SDS011;57617;51.988;5.854;2022-12-20T11:56:14;13.95;;;5.55;;
70228;SDS011;57617;51.988;5.854;2022-12-20T11:58:49;12.88;;;6.10;;
70228;SDS011;57617;51.988;5.854;2022-12-20T12:01:19;16.02;;;5.90;;
70228;SDS011;57617;51.988;5.854;2022-12-20T12:06:36;9.40;;;5.53;;
70228;SDS011;57617;51.988;5.854;2022-12-20T12:09:13;11.50;;;5.80;;
70228;SDS011;57617;51.988;5.854;2022-12-20T12:11:59;14.10;;;5.55;;
70228;SDS011;57617;51.988;5.854;2022-12-20T12:14:29;11.68;;;5.88;;
70228;SDS011;57617;51.988;5.854;2022-12-20T12:17:11;11.98;;;5.63;;
70228;SDS011;57617;51.988;5.854;2022-12-20T12:19:42;11.43;;;5.53;;
70228;SDS011;57617;51.988;5.854;2022-12-20T12:22:19;10.82;;;5.07;;
70228;SDS011;57617;51.988;5.854;2022-12-20T12:24:51;13.25;;;5.68;;
70228;SDS011;57617;51.988;5.854;2022-12-20T12:27:24;11.50;;;5.72;;
70228;SDS011;57617;51.988;5.854;2022-12-20T12:29:55;14.63;;;5.85;;
70228;SDS011;57617;51.988;5.854;2022-12-20T12:32:30;10.80;;;5.60;;
70228;SDS011;57617;51.988;5.854;2022-12-20T12:46:12;10.82;;;5.65;;
70228;SDS011;57617;51.988;5.854;2022-12-20T12:51:23;10.52;;;5.88;;
70228;SDS011;57617;51.988;5.854;2022-12-20T12:53:53;14.15;;;6.03;;
70228;SDS011;57617;51.988;5.854;2022-12-20T12:59:07;13.23;;;6.40;;
70228;SDS011;57617;51.988;5.854;2022-12-20T13:09:20;16.52;;;6.63;;
70228;SDS011;57617;51.988;5.854;2022-12-20T13:12:00;11.55;;;6.85;;
70228;SDS011;57617;51.988;5.854;2022-12-20T13:17:52;14.63;;;7.15;;
70228;SDS011;57617;51.988;5.854;2022-12-20T13:20:21;10.52;;;6.60;;
70228;SDS011;57617;51.988;5.854;2022-12-20T13:25:40;15.75;;;7.45;;
70228;SDS011;57617;51.988;5.854;2022-12-20T13:43:46;11.77;;;7.22;;
70228;SDS011;57617;51.988;5.854;2022-12-20T13:46:26;14.18;;;7.38;;
70228;SDS011;57617;51.988;5.854;2022-12-20T13:49:07;15.93;;;8.23;;
70228;SDS011;57617;51.988;5.854;2022-12-20T13:51:35;14.63;;;7.85;;
70228;SDS011;57617;51.988;5.854;2022-12-20T13:54:02;16.75;;;8.10;;
70228;SDS011;57617;51.988;5.854;2022-12-20T13:56:31;13.93;;;7.68;;
70228;SDS011;57617;51.988;5.854;2022-12-20T14:01:56;16.73;;;8.65;;
70228;SDS011;57617;51.988;5.854;2022-12-20T14:04:27;17.98;;;8.50;;
70228;SDS011;57617;51.988;5.854;2022-12-20T14:07:03;15.20;;;8.25;;
70228;SDS011;57617;51.988;5.854;2022-12-20T14:09:36;20.73;;;9.20;;
70228;SDS011;57617;51.988;5.854;2022-12-20T14:12:20;18.02;;;8.40;;
70228;SDS011;57617;51.988;5.854;2022-12-20T14:14:47;14.52;;;7.90;;
70228;SDS011;57617;51.988;5.854;2022-12-20T14:20:00;17.50;;;8.82;;
70228;SDS011;57617;51.988;5.854;2022-12-20T14:25:51;19.85;;;8.38;;
70228;SDS011;57617;51.988;5.854;2022-12-20T14:28:33;15.77;;;8.93;;
70228;SDS011;57617;51.988;5.854;2022-12-20T14:31:03;17.02;;;8.60;;
70228;SDS011;57617;51.988;5.854;2022-12-20T14:33:33;18.27;;;8.15;;
70228;SDS011;57617;51.988;5.854;2022-12-20T14:38:40;19.77;;;9.30;;
70228;SDS011;57617;51.988;5.854;2022-12-20T14:44:30;18.98;;;9.65;;
70228;SDS011;57617;51.988;5.854;2022-12-20T14:46:49;16.65;;;9.75;;
70228;SDS011;57617;51.988;5.854;2022-12-20T14:49:22;17.45;;;9.10;;
70228;SDS011;57617;51.988;5.854;2022-12-20T14:51:49;16.27;;;8.88;;
70228;SDS011;57617;51.988;5.854;2022-12-20T14:54:24;17.63;;;9.23;;
70228;SDS011;57617;51.988;5.854;2022-12-20T14:56:52;16.65;;;9.00;;
70228;SDS011;57617;51.988;5.854;2022-12-20T14:59:25;18.58;;;9.32;;
70228;SDS011;57617;51.988;5.854;2022-12-20T15:01:52;24.83;;;13.30;;
70228;SDS011;57617;51.988;5.854;2022-12-20T15:04:31;17.33;;;9.45;;
70228;SDS011;57617;51.988;5.854;2022-12-20T15:06:58;22.83;;;10.15;;
70228;SDS011;57617;51.988;5.854;2022-12-20T15:09:25;27.02;;;14.50;;
70228;SDS011;57617;51.988;5.854;2022-12-20T15:11:51;20.48;;;10.30;;
70228;SDS011;57617;51.988;5.854;2022-12-20T15:14:31;19.67;;;10.20;;
70228;SDS011;57617;51.988;5.854;2022-12-20T15:17:11;15.15;;;8.48;;
70228;SDS011;57617;51.988;5.854;2022-12-20T15:19:39;24.95;;;13.10;;
70228;SDS011;57617;51.988;5.854;2022-12-20T15:22:05;16.30;;;8.70;;
70228;SDS011;57617;51.988;5.854;2022-12-20T15:24:40;21.00;;;11.13;;
70228;SDS011;57617;51.988;5.854;2022-12-20T15:27:11;19.13;;;9.95;;
70228;SDS011;57617;51.988;5.854;2022-12-20T15:29:37;24.23;;;12.18;;
70228;SDS011;57617;51.988;5.854;2022-12-20T15:32:11;21.92;;;10.35;;
70228;SDS011;57617;51.988;5.854;2022-12-20T15:34:45;20.52;;;9.90;;
70228;SDS011;57617;51.988;5.854;2022-12-20T15:37:13;18.63;;;10.20;;
70228;SDS011;57617;51.988;5.854;2022-12-20T15:39:39;17.17;;;8.32;;
70228;SDS011;57617;51.988;5.854;2022-12-20T15:42:05;16.98;;;8.43;;
70228;SDS011;57617;51.988;5.854;2022-12-20T15:44:31;16.85;;;9.18;;
70228;SDS011;57617;51.988;5.854;2022-12-20T15:46:59;18.75;;;9.10;;
70228;SDS011;57617;51.988;5.854;2022-12-20T15:49:25;21.17;;;9.48;;
70228;SDS011;57617;51.988;5.854;2022-12-20T15:51:53;19.83;;;9.90;;
70228;SDS011;57617;51.988;5.854;2022-12-20T15:54:26;21.70;;;9.40;;
70228;SDS011;57617;51.988;5.854;2022-12-20T15:56:58;18.55;;;9.95;;
70228;SDS011;57617;51.988;5.854;2022-12-20T15:59:26;19.45;;;10.10;;
70228;SDS011;57617;51.988;5.854;2022-12-20T16:01:52;20.10;;;9.30;;
70228;SDS011;57617;51.988;5.854;2022-12-20T16:04:18;20.30;;;9.50;;
70228;SDS011;57617;51.988;5.854;2022-12-20T16:06:46;22.73;;;10.35;;
70228;SDS011;57617;51.988;5.854;2022-12-20T16:09:13;19.73;;;10.00;;
70228;SDS011;57617;51.988;5.854;2022-12-20T16:11:39;22.02;;;9.98;;
70228;SDS011;57617;51.988;5.854;2022-12-20T16:14:05;21.30;;;9.90;;
70228;SDS011;57617;51.988;5.854;2022-12-20T16:16:32;18.75;;;10.07;;
70228;SDS011;57617;51.988;5.854;2022-12-20T16:18:59;21.65;;;10.13;;
70228;SDS011;57617;51.988;5.854;2022-12-20T16:21:27;24.38;;;11.27;;
70228;SDS011;57617;51.988;5.854;2022-12-20T16:23:56;22.95;;;11.07;;
70228;SDS011;57617;51.988;5.854;2022-12-20T16:26:22;34.55;;;12.50;;
70228;SDS011;57617;51.988;5.854;2022-12-20T16:28:50;30.75;;;12.18;;
70228;SDS011;57617;51.988;5.854;2022-12-20T16:33:50;25.58;;;11.82;;
70228;SDS011;57617;51.988;5.854;2022-12-20T16:36:16;22.38;;;10.82;;
70228;SDS011;57617;51.988;5.854;2022-12-20T16:38:41;24.33;;;11.60;;
70228;SDS011;57617;51.988;5.854;2022-12-20T16:41:14;24.30;;;11.55;;
70228;SDS011;57617;51.988;5.854;2022-12-20T16:43:43;26.67;;;11.95;;
70228;SDS011;57617;51.988;5.854;2022-12-20T16:46:13;40.83;;;16.15;;
70228;SDS011;57617;51.988;5.854;2022-12-20T16:48:40;32.92;;;13.93;;
70228;SDS011;57617;51.988;5.854;2022-12-20T16:53:47;28.70;;;12.82;;
70228;SDS011;57617;51.988;5.854;2022-12-20T16:56:13;26.92;;;13.05;;
70228;SDS011;57617;51.988;5.854;2022-12-20T16:58:39;31.75;;;14.85;;
70228;SDS011;57617;51.988;5.854;2022-12-20T17:01:04;26.77;;;12.27;;
70228;SDS011;57617;51.988;5.854;2022-12-20T17:03:29;27.58;;;12.73;;
70228;SDS011;57617;51.988;5.854;2022-12-20T17:05:55;31.38;;;13.45;;
70228;SDS011;57617;51.988;5.854;2022-12-20T17:08:21;33.95;;;15.23;;
70228;SDS011;57617;51.988;5.854;2022-12-20T17:10:46;27.30;;;14.15;;